Time;durP1;ratioP1;P1;durP2;ratioP2;P2;SDS_P1;SDS_P2;PMS_P1;PMS_P2;Temp;Humidity;BMP_temperature;BMP_pressure;BME280_temperature;BME280_humidity;BME280_pressure;Samples;Min_cycle;Max_cycle;Signal;HPM_P1;HPM_P2
2023/01/23 00:00:14;;;;;;;0.30;0.30;;;0.50;99.90;;;;;;5094833;28;20441;-81
2023/01/23 00:02:41;;;;;;;0.30;0.30;;;0.50;99.90;;;;;;5094799;28;20425;-81
2023/01/23 00:05:08;;;;;;;0.40;0.40;;;0.50;99.90;;;;;;5094676;28;20475;-81
2023/01/23 00:07:35;;;;;;;0.40;0.30;;;0.60;99.90;;;;;;5094682;28;20467;-81
2023/01/23 00:10:02;;;;;;;0.30;0.30;;;0.50;99.90;;;;;;5094317;28;20436;-81
2023/01/23 00:12:29;;;;;;;0.30;0.20;;;0.60;99.90;;;;;;5094507;28;20480;-81
2023/01/23 00:14:57;;;;;;;0.30;0.30;;;0.60;99.90;;;;;;5094266;28;20488;-81
2023/01/23 00:17:26;;;;;;;5.30;1.13;;;0.60;99.90;;;;;;5094472;28;20884;-81
2023/01/23 00:19:53;;;;;;;0.30;0.20;;;0.70;99.90;;;;;;5094144;28;20448;-81
2023/01/23 00:22:20;;;;;;;1.27;0.73;;;0.70;99.90;;;;;;5094121;28;20540;-81
2023/01/23 00:24:46;;;;;;;0.40;0.40;;;0.70;99.90;;;;;;5094300;28;20441;-80
2023/01/23 00:27:13;;;;;;;0.50;0.47;;;0.60;99.90;;;;;;5094545;28;20774;-81
2023/01/23 00:29:40;;;;;;;0.30;0.30;;;0.60;99.90;;;;;;5094079;28;20444;-81
2023/01/23 00:32:08;;;;;;;0.30;0.30;;;0.50;99.90;;;;;;5094141;28;20419;-81
2023/01/23 00:34:34;;;;;;;0.40;0.40;;;0.50;99.90;;;;;;5093898;28;20825;-81
2023/01/23 00:37:01;;;;;;;0.57;0.40;;;0.40;99.90;;;;;;5094178;28;20420;-81
2023/01/23 00:39:28;;;;;;;0.73;0.70;;;0.40;99.90;;;;;;5094085;28;20444;-81
2023/01/23 00:41:55;;;;;;;0.30;0.20;;;0.40;99.90;;;;;;5093171;28;20937;-81
2023/01/23 00:44:21;;;;;;;0.50;0.40;;;0.30;99.90;;;;;;5094069;28;20404;-82
2023/01/23 00:46:48;;;;;;;0.40;0.40;;;0.30;99.90;;;;;;5094175;28;20464;-81
2023/01/23 00:49:17;;;;;;;0.47;0.47;;;0.30;99.90;;;;;;5093612;28;20944;-81
2023/01/23 00:51:44;;;;;;;1.40;1.07;;;0.30;99.90;;;;;;5093919;28;20794;-81
2023/01/23 00:54:11;;;;;;;0.50;0.40;;;0.30;99.90;;;;;;5093776;28;20480;-81
2023/01/23 00:56:38;;;;;;;0.43;0.43;;;0.30;99.90;;;;;;5093793;28;20465;-81
2023/01/23 00:59:04;;;;;;;0.40;0.40;;;0.30;99.90;;;;;;5093802;28;20448;-81
2023/01/23 01:01:31;;;;;;;0.30;0.30;;;0.30;99.90;;;;;;5093729;28;20445;-81
2023/01/23 01:03:58;;;;;;;1.90;0.60;;;0.20;99.90;;;;;;5093916;28;20444;-81
2023/01/23 01:06:28;;;;;;;0.67;0.60;;;0.20;99.90;;;;;;5093597;28;20468;-81
2023/01/23 01:08:56;;;;;;;0.43;0.43;;;0.20;99.90;;;;;;5093335;28;20786;-81
2023/01/23 01:11:22;;;;;;;0.30;0.30;;;0.20;99.90;;;;;;5093640;28;20497;-81
2023/01/23 01:13:51;;;;;;;0.30;0.30;;;0.30;99.90;;;;;;5093280;28;20817;-81
2023/01/23 01:16:18;;;;;;;0.83;0.70;;;0.30;99.90;;;;;;5093516;28;20464;-81
2023/01/23 01:18:45;;;;;;;0.30;0.30;;;0.30;99.90;;;;;;5093532;28;20451;-81
2023/01/23 01:21:17;;;;;;;0.30;0.30;;;0.30;99.90;;;;;;5093534;28;20445;-81
2023/01/23 01:23:45;;;;;;;1.70;1.07;;;0.30;99.90;;;;;;5093729;28;20435;-81
2023/01/23 01:26:12;;;;;;;0.30;0.30;;;0.40;99.90;;;;;;5093297;28;20567;-81
2023/01/23 01:28:40;;;;;;;0.30;0.30;;;0.40;99.90;;;;;;5093444;28;20451;-81
2023/01/23 01:31:10;;;;;;;0.30;0.30;;;0.30;99.90;;;;;;5093462;28;20457;-81
2023/01/23 01:33:38;;;;;;;0.60;0.60;;;0.30;99.90;;;;;;5093349;28;20476;-81
2023/01/23 01:36:08;;;;;;;0.47;0.47;;;0.20;99.90;;;;;;5093266;28;20443;-79
2023/01/23 01:38:35;;;;;;;0.60;0.60;;;0.20;99.90;;;;;;5093406;28;20429;-78
2023/01/23 01:41:03;;;;;;;0.53;0.53;;;0.20;99.90;;;;;;5093365;28;20457;-78
2023/01/23 01:43:30;;;;;;;0.40;0.40;;;0.30;99.90;;;;;;5093012;28;20444;-78
2023/01/23 01:46:07;;;;;;;0.77;0.77;;;0.30;99.90;;;;;;5093215;28;20468;-78
2023/01/23 01:48:38;;;;;;;0.70;0.57;;;0.30;99.90;;;;;;5093483;28;20793;-78
2023/01/23 01:51:18;;;;;;;1.53;1.17;;;0.30;99.90;;;;;;5093286;28;20429;-78
2023/01/23 01:53:47;;;;;;;0.40;0.40;;;0.30;99.90;;;;;;5097233;28;20472;-78
2023/01/23 01:56:17;;;;;;;0.30;0.30;;;0.30;99.90;;;;;;5097172;28;20464;-78
2023/01/23 01:58:47;;;;;;;0.30;0.30;;;0.30;99.90;;;;;;5097250;28;20428;-79
2023/01/23 02:01:14;;;;;;;0.50;0.50;;;0.30;99.90;;;;;;5096819;28;20970;-78
2023/01/23 02:03:41;;;;;;;0.30;0.30;;;0.30;99.90;;;;;;5097086;28;20422;-78
2023/01/23 02:06:08;;;;;;;1.00;0.63;;;0.20;99.90;;;;;;5096941;28;20460;-78
2023/01/23 02:08:39;;;;;;;0.30;0.30;;;0.20;99.90;;;;;;5096950;28;20452;-78
2023/01/23 02:11:07;;;;;;;0.30;0.30;;;0.30;99.90;;;;;;5096947;28;20433;-78
2023/01/23 02:13:37;;;;;;;2.00;0.67;;;0.30;99.90;;;;;;5096630;28;20484;-78
2023/01/23 02:16:06;;;;;;;0.30;0.30;;;0.30;99.90;;;;;;5096687;28;20842;-79
2023/01/23 02:18:34;;;;;;;0.70;0.70;;;0.40;99.90;;;;;;5096730;28;20429;-78
2023/01/23 02:21:05;;;;;;;0.30;0.30;;;0.40;99.90;;;;;;5096833;28;20444;-78
2023/01/23 02:23:39;;;;;;;0.60;0.60;;;0.40;99.90;;;;;;5096430;28;20952;-78
2023/01/23 02:26:11;;;;;;;1.20;1.13;;;0.40;99.90;;;;;;5096322;28;21002;-78
2023/01/23 02:28:40;;;;;;;0.50;0.50;;;0.40;99.90;;;;;;5096672;28;20424;-78
2023/01/23 02:31:07;;;;;;;0.30;0.30;;;0.30;99.90;;;;;;5096581;28;20851;-78
2023/01/23 02:33:50;;;;;;;0.30;0.30;;;0.30;99.90;;;;;;5096445;28;20458;-79
2023/01/23 02:36:18;;;;;;;0.47;0.47;;;0.20;99.90;;;;;;5096448;28;20479;-78
2023/01/23 02:38:53;;;;;;;0.30;0.30;;;0.20;99.90;;;;;;5096421;28;20451;-78
2023/01/23 02:41:28;;;;;;;0.80;0.60;;;0.20;99.90;;;;;;5096437;28;20432;-81
2023/01/23 02:43:56;;;;;;;0.30;0.30;;;0.30;99.90;;;;;;5096639;28;20403;-81
2023/01/23 02:46:24;;;;;;;0.67;0.57;;;0.30;99.90;;;;;;5096173;28;20460;-81
2023/01/23 02:48:51;;;;;;;0.57;0.57;;;0.30;99.90;;;;;;5095894;28;20817;-81
2023/01/23 02:51:19;;;;;;;1.13;0.40;;;0.30;99.90;;;;;;5096166;28;20441;-81
2023/01/23 02:53:46;;;;;;;0.30;0.30;;;0.30;99.90;;;;;;5096065;28;20507;-81
2023/01/23 02:56:13;;;;;;;0.60;0.60;;;0.30;99.90;;;;;;5096017;28;20472;-81
2023/01/23 03:01:27;;;;;;;0.73;0.43;;;0.30;99.90;;;;;;5096255;28;20412;-81
2023/01/23 03:03:55;;;;;;;0.70;0.50;;;0.30;99.90;;;;;;5095005;28;20864;-81
2023/01/23 03:06:22;;;;;;;0.60;0.50;;;0.30;99.90;;;;;;5095497;28;20496;-81
2023/01/23 03:08:49;;;;;;;1.00;1.00;;;0.30;99.90;;;;;;5095712;28;20460;-81
2023/01/23 03:11:17;;;;;;;0.30;0.27;;;0.30;99.90;;;;;;5095791;28;20814;-81
2023/01/23 03:13:47;;;;;;;0.77;0.77;;;0.20;99.90;;;;;;5095448;28;20484;-81
2023/01/23 03:16:14;;;;;;;0.30;0.30;;;0.30;99.90;;;;;;5095682;28;20471;-81
2023/01/23 03:18:40;;;;;;;1.03;0.93;;;0.30;99.90;;;;;;5095666;28;20445;-81
2023/01/23 03:21:08;;;;;;;0.90;0.53;;;0.30;99.90;;;;;;5095620;28;20449;-84
2023/01/23 03:23:35;;;;;;;0.30;0.30;;;0.30;99.90;;;;;;5095557;28;20452;-84
2023/01/23 03:26:02;;;;;;;0.30;0.30;;;0.30;99.90;;;;;;5095401;28;21021;-84
2023/01/23 03:31:16;;;;;;;0.40;0.40;;;0.40;99.90;;;;;;5095642;28;20412;-84
2023/01/23 03:33:43;;;;;;;1.60;1.50;;;0.40;99.90;;;;;;5095269;28;20489;-84
2023/01/23 03:36:11;;;;;;;0.30;0.20;;;0.30;99.90;;;;;;5094953;28;20985;-84
2023/01/23 03:41:23;;;;;;;0.30;0.30;;;0.30;99.90;;;;;;5095345;28;20837;-82
2023/01/23 03:41:24;;;;;;;0.53;0.53;;;0.30;99.90;;;;;;5095044;28;20421;-81
2023/01/23 03:43:51;;;;;;;0.40;0.40;;;0.40;99.90;;;;;;5094898;28;20439;-81
2023/01/23 03:46:19;;;;;;;0.30;0.30;;;0.30;99.90;;;;;;5094932;28;20225;-81
2023/01/23 03:48:46;;;;;;;0.30;0.30;;;0.30;99.90;;;;;;5095104;28;20452;-81
2023/01/23 03:51:12;;;;;;;0.50;0.50;;;0.30;99.90;;;;;;5095020;28;20453;-81
2023/01/23 03:53:39;;;;;;;0.43;0.43;;;0.40;99.90;;;;;;5094612;28;20480;-81
2023/01/23 03:56:06;;;;;;;0.40;0.40;;;0.30;99.90;;;;;;5094854;28;20468;-81
2023/01/23 03:58:33;;;;;;;1.13;1.03;;;0.30;99.90;;;;;;5094540;28;20452;-81
2023/01/23 04:01:02;;;;;;;0.60;0.60;;;0.30;99.90;;;;;;5094866;28;20456;-81
2023/01/23 04:03:30;;;;;;;0.30;0.30;;;0.30;99.90;;;;;;5094672;28;21010;-81
2023/01/23 04:05:57;;;;;;;1.23;0.67;;;0.20;99.90;;;;;;5094340;28;20968;-81
2023/01/23 04:08:24;;;;;;;0.30;0.20;;;0.20;99.90;;;;;;5094675;28;20476;-81
2023/01/23 04:10:50;;;;;;;0.80;0.70;;;0.30;99.90;;;;;;5094649;28;20814;-81
2023/01/23 04:13:17;;;;;;;0.30;0.30;;;0.30;99.90;;;;;;5094533;28;20488;-80
2023/01/23 04:15:44;;;;;;;0.30;0.30;;;0.20;99.90;;;;;;5093360;28;20491;-81
2023/01/23 04:18:11;;;;;;;0.90;0.73;;;0.20;99.90;;;;;;5094511;28;20439;-81
2023/01/23 04:20:39;;;;;;;0.30;0.30;;;0.20;99.90;;;;;;5094151;28;20944;-81
2023/01/23 04:23:05;;;;;;;0.90;0.70;;;0.20;99.90;;;;;;5094413;28;20452;-81
2023/01/23 04:25:32;;;;;;;3.70;0.90;;;0.20;99.90;;;;;;5094234;28;20455;-81
2023/01/23 04:27:59;;;;;;;0.50;0.50;;;0.20;99.90;;;;;;5094581;28;20436;-81
2023/01/23 04:30:25;;;;;;;0.40;0.40;;;0.20;99.90;;;;;;5094542;28;20452;-81
2023/01/23 04:32:52;;;;;;;0.50;0.50;;;0.30;99.90;;;;;;5094235;28;20453;-81
2023/01/23 04:35:19;;;;;;;0.77;0.77;;;0.30;99.90;;;;;;5094062;28;20492;-81
2023/01/23 04:37:47;;;;;;;0.30;0.30;;;0.30;99.90;;;;;;5094157;28;20427;-81
2023/01/23 04:40:14;;;;;;;0.30;0.27;;;0.30;99.90;;;;;;5093781;28;20448;-82
2023/01/23 04:42:41;;;;;;;0.40;0.33;;;0.40;99.90;;;;;;5093750;28;20982;-81
2023/01/23 04:45:09;;;;;;;0.80;0.80;;;0.40;99.90;;;;;;5093881;28;20457;-82
2023/01/23 04:47:36;;;;;;;0.30;0.20;;;0.40;99.90;;;;;;5094238;28;20441;-81
2023/01/23 04:50:03;;;;;;;0.30;0.30;;;0.40;99.90;;;;;;5094173;28;20440;-81
2023/01/23 04:52:29;;;;;;;1.27;0.63;;;0.30;99.90;;;;;;5093898;28;20448;-81
2023/01/23 04:54:58;;;;;;;0.60;0.50;;;0.30;99.90;;;;;;5093437;28;20484;-81
2023/01/23 04:57:24;;;;;;;1.63;0.53;;;0.30;99.90;;;;;;5094651;28;20452;-82
2023/01/23 04:59:51;;;;;;;0.30;0.30;;;0.30;99.90;;;;;;5093593;28;20444;-81
2023/01/23 05:02:18;;;;;;;1.33;0.53;;;0.30;99.90;;;;;;5093996;28;20451;-81
2023/01/23 05:04:45;;;;;;;0.50;0.40;;;0.30;99.90;;;;;;5093669;28;20487;-81
2023/01/23 05:07:12;;;;;;;0.30;0.20;;;0.30;99.90;;;;;;5093728;28;20456;-81
2023/01/23 05:09:40;;;;;;;1.90;0.50;;;0.30;99.90;;;;;;5093906;28;20449;-81
2023/01/23 05:12:08;;;;;;;0.50;0.40;;;0.30;99.90;;;;;;5093618;28;20459;-81
2023/01/23 05:14:35;;;;;;;0.70;0.40;;;0.30;99.90;;;;;;5093303;28;20492;-81
2023/01/23 05:17:01;;;;;;;1.33;0.60;;;0.30;99.90;;;;;;5093622;28;20824;-81
2023/01/23 05:19:28;;;;;;;0.30;0.20;;;0.30;99.90;;;;;;5093285;28;20936;-81
2023/01/23 05:21:55;;;;;;;1.17;0.87;;;0.30;99.90;;;;;;5093527;28;20451;-81
2023/01/23 05:24:22;;;;;;;0.40;0.40;;;0.30;99.90;;;;;;5093189;28;20822;-81
2023/01/23 05:26:48;;;;;;;0.70;0.60;;;0.30;99.90;;;;;;5093244;28;20469;-81
2023/01/23 05:29:16;;;;;;;0.50;0.50;;;0.30;99.90;;;;;;5093707;28;20427;-81
2023/01/23 05:31:43;;;;;;;1.17;1.17;;;0.40;99.90;;;;;;5093429;28;20440;-81
2023/01/23 05:34:10;;;;;;;0.30;0.30;;;0.40;99.90;;;;;;5093360;28;20484;-82
2023/01/23 05:36:37;;;;;;;0.50;0.50;;;0.40;99.90;;;;;;5093342;28;20471;-82
2023/01/23 05:39:03;;;;;;;0.83;0.80;;;0.40;99.90;;;;;;5093371;28;20451;-82
2023/01/23 05:41:30;;;;;;;0.47;0.47;;;0.40;99.90;;;;;;5093053;28;20448;-82
2023/01/23 05:43:57;;;;;;;0.30;0.20;;;0.40;99.90;;;;;;5093385;28;20449;-80
2023/01/23 05:46:25;;;;;;;0.47;0.47;;;0.40;99.90;;;;;;5093158;28;20476;-82
2023/01/23 05:48:52;;;;;;;0.43;0.43;;;0.40;99.90;;;;;;5093261;28;20452;-82
2023/01/23 05:51:19;;;;;;;1.23;1.07;;;0.40;99.90;;;;;;5093251;28;20467;-82
2023/01/23 05:53:45;;;;;;;3.60;0.53;;;0.40;99.90;;;;;;5093228;28;20429;-82
2023/01/23 05:56:13;;;;;;;0.80;0.80;;;0.40;99.90;;;;;;5093125;28;20476;-82
2023/01/23 05:58:39;;;;;;;0.93;0.67;;;0.40;99.90;;;;;;5093183;28;20459;-82
2023/01/23 06:01:06;;;;;;;0.37;0.37;;;0.40;99.90;;;;;;5093411;28;20452;-82
2023/01/23 06:03:34;;;;;;;0.30;0.30;;;0.40;99.90;;;;;;5093121;28;20451;-82
2023/01/23 06:06:02;;;;;;;0.30;0.30;;;0.40;99.90;;;;;;5093025;28;20464;-79
2023/01/23 06:08:29;;;;;;;0.30;0.30;;;0.30;99.90;;;;;;5092772;28;20452;-79
2023/01/23 06:10:58;;;;;;;0.40;0.30;;;0.30;99.90;;;;;;5093000;28;20816;-79
2023/01/23 06:13:25;;;;;;;0.30;0.30;;;0.30;99.90;;;;;;5092976;28;20437;-79
2023/01/23 06:15:52;;;;;;;1.90;0.73;;;0.30;99.90;;;;;;5092703;28;20492;-82
2023/01/23 06:18:19;;;;;;;0.53;0.50;;;0.30;99.90;;;;;;5092964;28;20452;-82
2023/01/23 06:20:47;;;;;;;0.30;0.30;;;0.30;99.90;;;;;;5092971;28;20449;-82
2023/01/23 06:23:14;;;;;;;1.40;1.30;;;0.30;99.90;;;;;;5092911;28;20438;-82
2023/01/23 06:25:41;;;;;;;1.70;1.60;;;0.30;99.90;;;;;;5092839;28;20465;-82
2023/01/23 06:28:08;;;;;;;0.40;0.40;;;0.20;99.90;;;;;;5092939;28;20459;-82
2023/01/23 06:30:36;;;;;;;2.77;2.10;;;0.30;99.90;;;;;;5092902;28;20440;-82
2023/01/23 06:33:03;;;;;;;0.83;0.83;;;0.20;99.90;;;;;;5093068;28;20437;-82
2023/01/23 06:35:30;;;;;;;0.40;0.40;;;0.20;99.90;;;;;;5092816;28;20487;-82
2023/01/23 06:37:58;;;;;;;0.30;0.20;;;0.20;99.90;;;;;;5092956;28;20467;-82
2023/01/23 06:40:24;;;;;;;1.17;0.90;;;0.20;99.90;;;;;;5096223;28;20448;-82
2023/01/23 06:42:54;;;;;;;0.83;0.83;;;0.20;99.90;;;;;;5096484;28;20502;-82
2023/01/23 06:45:21;;;;;;;2.20;0.90;;;0.20;99.90;;;;;;5096551;28;20470;-82
2023/01/23 06:47:48;;;;;;;0.30;0.20;;;0.20;99.90;;;;;;5096312;28;20463;-82
2023/01/23 06:50:15;;;;;;;0.30;0.30;;;0.20;99.90;;;;;;5096238;28;20453;-82
2023/01/23 06:52:41;;;;;;;0.47;0.40;;;0.30;99.90;;;;;;5096237;28;20448;-82
2023/01/23 06:55:10;;;;;;;0.30;0.30;;;0.30;99.90;;;;;;5096310;28;20488;-82
2023/01/23 06:57:37;;;;;;;1.00;1.00;;;0.30;99.90;;;;;;5096149;28;20436;-82
2023/01/23 07:00:05;;;;;;;0.30;0.30;;;0.30;99.90;;;;;;5096414;28;20445;-82
2023/01/23 07:02:31;;;;;;;0.33;0.33;;;0.20;99.90;;;;;;5095707;28;20444;-82
2023/01/23 07:04:58;;;;;;;0.40;0.40;;;0.20;99.90;;;;;;5095905;28;20465;-82
2023/01/23 07:07:25;;;;;;;0.30;0.30;;;0.10;99.90;;;;;;5095668;28;20441;-82
2023/01/23 07:09:52;;;;;;;0.97;0.80;;;0.10;99.90;;;;;;5095950;28;20951;-82
2023/01/23 07:12:20;;;;;;;5.60;1.07;;;0.10;99.90;;;;;;5095848;28;20441;-82
2023/01/23 07:14:47;;;;;;;0.30;0.20;;;0.20;99.90;;;;;;5095501;28;20496;-82
2023/01/23 07:17:13;;;;;;;0.43;0.43;;;0.20;99.90;;;;;;5095443;28;20448;-82
2023/01/23 07:19:40;;;;;;;1.07;0.90;;;0.20;99.90;;;;;;5095667;28;20456;-81
2023/01/23 07:22:07;;;;;;;0.30;0.30;;;0.20;99.90;;;;;;5095931;28;20449;-79
2023/01/23 07:24:34;;;;;;;1.43;0.77;;;0.20;99.90;;;;;;5095526;28;20448;-80
2023/01/23 07:27:00;;;;;;;0.30;0.30;;;0.30;99.90;;;;;;5095523;28;20482;-79
2023/01/23 07:29:28;;;;;;;0.93;0.60;;;0.30;99.90;;;;;;5095533;28;20532;-79
2023/01/23 07:31:55;;;;;;;1.03;1.03;;;0.30;99.90;;;;;;5095703;28;20451;-81
2023/01/23 07:34:22;;;;;;;0.30;0.30;;;0.30;99.90;;;;;;5095383;28;20423;-81
2023/01/23 07:36:49;;;;;;;0.40;0.40;;;0.20;99.90;;;;;;5095351;28;20475;-82
2023/01/23 07:39:16;;;;;;;0.50;0.50;;;0.20;99.90;;;;;;5095319;28;20449;-82
2023/01/23 07:41:42;;;;;;;0.70;0.63;;;0.20;99.90;;;;;;5095250;28;20452;-82
2023/01/23 07:44:16;;;;;;;2.20;1.30;;;0.20;99.90;;;;;;5095666;28;20448;-80
2023/01/23 07:46:44;;;;;;;2.00;0.70;;;0.20;99.90;;;;;;5095574;28;21028;-82
2023/01/23 07:49:11;;;;;;;0.40;0.40;;;0.20;99.90;;;;;;5095088;28;20448;-82
2023/01/23 07:51:38;;;;;;;3.33;2.17;;;0.30;99.90;;;;;;5094757;28;20947;-82
2023/01/23 07:54:05;;;;;;;0.30;0.30;;;0.30;99.90;;;;;;5095064;28;20456;-82
2023/01/23 07:56:32;;;;;;;0.50;0.50;;;0.30;99.90;;;;;;5094768;28;20488;-82
2023/01/23 07:58:59;;;;;;;0.30;0.30;;;0.40;99.90;;;;;;5094938;28;20483;-82
2023/01/23 08:01:26;;;;;;;1.33;1.23;;;0.30;99.90;;;;;;5094867;28;20452;-82
2023/01/23 08:03:54;;;;;;;0.90;0.90;;;0.30;99.90;;;;;;5094861;28;20519;-81
2023/01/23 08:06:21;;;;;;;1.70;1.60;;;0.30;99.90;;;;;;5094406;28;20464;-82
2023/01/23 08:08:48;;;;;;;1.80;1.70;;;0.40;99.90;;;;;;5094723;28;20422;-82
2023/01/23 08:11:15;;;;;;;0.40;0.30;;;0.40;99.90;;;;;;5094649;28;20460;-81
2023/01/23 08:13:42;;;;;;;0.30;0.30;;;0.50;99.90;;;;;;5094405;28;20444;-81
2023/01/23 08:16:09;;;;;;;0.40;0.40;;;0.50;99.90;;;;;;5094227;28;20480;-81
2023/01/23 08:18:35;;;;;;;0.30;0.30;;;0.50;99.90;;;;;;5094502;28;20448;-81
2023/01/23 08:21:04;;;;;;;0.97;0.97;;;0.60;99.90;;;;;;5094445;28;20449;-82
2023/01/23 08:23:33;;;;;;;0.30;0.20;;;0.60;99.90;;;;;;5094427;28;20472;-79
2023/01/23 08:26:02;;;;;;;0.53;0.53;;;0.60;99.90;;;;;;5094543;28;20461;-81
2023/01/23 08:28:29;;;;;;;1.60;1.13;;;0.60;99.90;;;;;;5094903;28;20452;-81
2023/01/23 08:30:59;;;;;;;0.73;0.33;;;0.60;99.90;;;;;;5094207;28;20931;-81
2023/01/23 08:33:26;;;;;;;0.50;0.50;;;0.60;99.90;;;;;;5094321;28;20444;-81
2023/01/23 08:35:55;;;;;;;0.60;0.60;;;0.60;99.90;;;;;;5093731;28;21007;-82
2023/01/23 08:38:23;;;;;;;0.30;0.30;;;0.60;99.90;;;;;;5093954;28;20978;-82
2023/01/23 08:40:52;;;;;;;0.93;0.93;;;0.50;99.90;;;;;;5094182;28;20444;-82
2023/01/23 08:43:19;;;;;;;1.20;1.20;;;0.50;99.90;;;;;;5094314;28;20524;-81
2023/01/23 08:45:49;;;;;;;0.50;0.50;;;0.50;99.90;;;;;;5093674;28;20468;-85
2023/01/23 08:48:16;;;;;;;1.17;0.97;;;0.60;99.90;;;;;;5094060;28;20445;-84
2023/01/23 08:50:43;;;;;;;0.30;0.20;;;0.60;99.90;;;;;;5093938;28;20451;-81
2023/01/23 08:53:09;;;;;;;0.60;0.60;;;0.60;99.90;;;;;;5093967;28;20456;-81
2023/01/23 08:55:38;;;;;;;0.50;0.50;;;0.70;99.90;;;;;;5093522;28;20485;-81
2023/01/23 08:58:06;;;;;;;2.00;0.80;;;0.70;99.90;;;;;;5093513;28;20453;-81
2023/01/23 09:00:32;;;;;;;0.70;0.70;;;0.70;99.90;;;;;;5093578;28;20433;-81
2023/01/23 09:02:59;;;;;;;0.30;0.20;;;0.80;99.90;;;;;;5093331;28;20444;-81
2023/01/23 09:05:27;;;;;;;0.50;0.50;;;0.80;99.90;;;;;;5093707;28;20465;-81
2023/01/23 09:07:54;;;;;;;0.30;0.30;;;0.80;99.90;;;;;;5093444;28;20453;-81
2023/01/23 09:10:21;;;;;;;0.70;0.50;;;0.80;99.90;;;;;;5093758;28;20414;-81
2023/01/23 09:12:50;;;;;;;0.30;0.30;;;0.70;99.90;;;;;;5093808;28;20448;-81
2023/01/23 09:15:17;;;;;;;1.27;0.90;;;0.70;99.90;;;;;;5093308;28;20492;-81
2023/01/23 09:17:44;;;;;;;0.30;0.30;;;0.80;99.90;;;;;;5093626;28;20422;-81
2023/01/23 09:20:11;;;;;;;0.40;0.40;;;0.80;99.90;;;;;;5093691;28;20455;-81
2023/01/23 09:22:38;;;;;;;1.03;1.00;;;0.90;99.90;;;;;;5093626;28;20786;-81
2023/01/23 09:25:06;;;;;;;4.30;0.90;;;0.90;99.90;;;;;;5093455;28;20465;-81
2023/01/23 09:27:32;;;;;;;0.67;0.67;;;0.90;99.90;;;;;;5093549;28;20455;-81
2023/01/23 09:30:01;;;;;;;0.30;0.30;;;0.90;99.90;;;;;;5093498;28;20456;-82
2023/01/23 09:32:27;;;;;;;0.50;0.50;;;0.90;99.90;;;;;;5093422;28;20449;-82
2023/01/23 09:34:54;;;;;;;0.30;0.20;;;0.90;99.90;;;;;;5093306;28;20468;-81
2023/01/23 09:37:21;;;;;;;11.23;0.87;;;0.90;99.90;;;;;;5093416;28;20440;-81
2023/01/23 09:39:48;;;;;;;0.30;0.30;;;1.00;99.90;;;;;;5093366;28;20440;-81
2023/01/23 09:42:18;;;;;;;0.30;0.30;;;1.00;99.90;;;;;;5093043;28;20451;-80
2023/01/23 09:44:50;;;;;;;2.63;0.97;;;0.90;99.90;;;;;;5093287;28;20425;-80
2023/01/23 09:47:23;;;;;;;0.30;0.30;;;0.80;99.90;;;;;;5093050;28;20927;-80
2023/01/23 09:49:57;;;;;;;0.50;0.40;;;0.70;99.90;;;;;;5093331;28;20429;-80
2023/01/23 09:52:28;;;;;;;0.30;0.30;;;0.60;99.90;;;;;;5093158;28;20433;-79
2023/01/23 09:55:01;;;;;;;0.60;0.60;;;0.70;99.90;;;;;;5093396;28;20469;-79
2023/01/23 09:57:34;;;;;;;0.80;0.80;;;0.70;99.90;;;;;;5093177;28;20432;-80
2023/01/23 10:00:06;;;;;;;0.37;0.37;;;0.60;99.90;;;;;;5093217;28;20428;-80
2023/01/23 10:02:34;;;;;;;0.50;0.50;;;0.60;99.90;;;;;;5094383;28;20806;-80
2023/01/23 10:05:02;;;;;;;0.30;0.30;;;0.60;99.90;;;;;;5093314;28;20476;-80
2023/01/23 10:07:44;;;;;;;0.87;0.80;;;0.50;99.90;;;;;;5093276;28;20490;-81
2023/01/23 10:10:33;;;;;;;0.93;0.50;;;0.60;99.90;;;;;;5093406;28;20444;-80
2023/01/23 10:13:09;;;;;;;0.50;0.50;;;0.70;99.90;;;;;;5093037;28;20522;-80
2023/01/23 10:15:54;;;;;;;0.53;0.53;;;0.60;99.90;;;;;;5096634;28;20496;-80
2023/01/23 10:18:28;;;;;;;0.53;0.53;;;0.60;99.90;;;;;;5096692;28;20984;-80
2023/01/23 10:21:06;;;;;;;0.37;0.37;;;0.70;99.90;;;;;;5096565;28;20923;-81
2023/01/23 10:23:45;;;;;;;0.50;0.50;;;0.80;99.90;;;;;;5096552;28;20882;-81
2023/01/23 10:26:18;;;;;;;0.30;0.30;;;0.90;99.90;;;;;;5096534;28;20479;-81
2023/01/23 10:28:46;;;;;;;0.30;0.20;;;1.00;99.90;;;;;;5097633;28;20429;-81
2023/01/23 10:31:26;;;;;;;0.57;0.57;;;1.10;99.90;;;;;;5096748;28;20425;-81
2023/01/23 10:33:58;;;;;;;0.30;0.27;;;1.00;99.90;;;;;;5096670;28;20436;-81
2023/01/23 10:36:29;;;;;;;0.50;0.50;;;1.10;99.90;;;;;;5096217;28;20477;-81
2023/01/23 10:39:01;;;;;;;0.30;0.20;;;1.10;99.90;;;;;;5096541;28;20448;-81
2023/01/23 10:41:28;;;;;;;0.30;0.30;;;0.90;99.90;;;;;;5096516;28;20476;-81
2023/01/23 10:43:56;;;;;;;0.30;0.30;;;0.80;99.90;;;;;;5096361;28;20429;-81
2023/01/23 10:46:29;;;;;;;0.30;0.27;;;0.80;99.90;;;;;;5095996;28;20888;-81
2023/01/23 10:48:58;;;;;;;0.30;0.20;;;0.90;99.90;;;;;;5096391;28;20404;-81
2023/01/23 10:51:31;;;;;;;0.43;0.43;;;1.00;99.90;;;;;;5096357;28;20457;-80
2023/01/23 10:54:07;;;;;;;1.23;0.50;;;1.10;99.90;;;;;;5096781;28;20459;-81
2023/01/23 10:56:36;;;;;;;0.50;0.43;;;1.10;99.90;;;;;;5095833;28;21022;-81
2023/01/23 10:59:06;;;;;;;0.30;0.30;;;1.00;99.90;;;;;;5096458;28;20444;-80
2023/01/23 11:01:34;;;;;;;1.37;1.37;;;0.90;99.90;;;;;;5096383;28;20448;-81
2023/01/23 11:04:16;;;;;;;4.00;2.80;;;0.80;99.90;;;;;;5095944;28;20440;-81
2023/01/23 11:06:43;;;;;;;0.47;0.47;;;0.80;99.90;;;;;;5095890;28;20476;-81
2023/01/23 11:09:19;;;;;;;0.30;0.30;;;0.90;99.90;;;;;;5096025;28;20445;-81
2023/01/23 11:12:00;;;;;;;0.73;0.73;;;0.90;99.90;;;;;;5095606;28;20803;-81
2023/01/23 11:14:27;;;;;;;0.30;0.20;;;0.90;99.90;;;;;;5095465;28;21046;-80
2023/01/23 11:17:02;;;;;;;0.60;0.60;;;1.00;99.90;;;;;;5095621;28;20489;-81
2023/01/23 11:19:32;;;;;;;0.33;0.30;;;1.00;99.90;;;;;;5095622;28;20481;-80
2023/01/23 11:22:01;;;;;;;0.30;0.30;;;1.00;99.90;;;;;;5095832;28;20489;-81
2023/01/23 11:24:33;;;;;;;1.03;0.93;;;1.00;99.90;;;;;;5095254;28;20444;-80
2023/01/23 11:27:01;;;;;;;0.40;0.40;;;1.00;99.90;;;;;;5095506;28;20913;-81
2023/01/23 11:29:30;;;;;;;0.93;0.83;;;1.10;99.90;;;;;;5095865;28;20468;-81
2023/01/23 11:32:01;;;;;;;0.30;0.27;;;1.20;99.90;;;;;;5095748;28;20478;-81
2023/01/23 11:34:34;;;;;;;0.30;0.23;;;1.30;99.90;;;;;;5095606;28;20436;-81
2023/01/23 11:37:08;;;;;;;3.13;2.63;;;1.40;99.90;;;;;;5095366;28;20461;-80
2023/01/23 11:39:47;;;;;;;0.40;0.40;;;1.30;99.90;;;;;;5095742;28;20436;-80
2023/01/23 11:42:14;;;;;;;0.30;0.30;;;1.40;99.90;;;;;;5096127;28;20440;-80
2023/01/23 11:44:41;;;;;;;3.30;1.53;;;1.40;99.90;;;;;;5095493;28;20852;-80
2023/01/23 11:47:40;;;;;;;0.50;0.50;;;1.40;99.90;;;;;;5095170;28;20939;-80
2023/01/23 11:50:36;;;;;;;0.30;0.30;;;1.50;99.90;;;;;;5095179;28;20437;-80
2023/01/23 11:53:10;;;;;;;1.00;0.87;;;1.50;99.90;;;;;;5094810;28;20433;-80
2023/01/23 11:55:53;;;;;;;0.30;0.30;;;1.50;99.90;;;;;;5094984;28;20467;-80
2023/01/23 11:58:32;;;;;;;0.30;0.30;;;1.40;99.90;;;;;;5094690;28;20509;-80
2023/01/23 12:01:07;;;;;;;0.30;0.30;;;1.30;99.90;;;;;;5094968;28;20433;-80
2023/01/23 12:04:13;;;;;;;3.50;1.00;;;1.30;99.90;;;;;;5094869;28;20433;-80
2023/01/23 12:07:00;;;;;;;0.30;0.20;;;1.30;99.90;;;;;;5094519;28;20466;-80
2023/01/23 12:09:33;;;;;;;0.70;0.70;;;1.20;99.90;;;;;;5095069;28;20424;-81
2023/01/23 12:12:08;;;;;;;1.73;0.70;;;1.30;99.90;;;;;;5094749;28;20425;-80
2023/01/23 12:14:46;;;;;;;0.40;0.40;;;1.30;99.90;;;;;;5094242;28;20476;-80
2023/01/23 12:17:26;;;;;;;0.30;0.30;;;1.30;99.90;;;;;;5094235;28;20974;-80
2023/01/23 12:20:17;;;;;;;0.30;0.30;;;1.30;99.90;;;;;;5094613;28;20429;-80
2023/01/23 12:22:56;;;;;;;0.30;0.20;;;1.30;99.90;;;;;;5094804;28;20440;-80
2023/01/23 12:25:31;;;;;;;0.30;0.30;;;1.20;99.90;;;;;;5094415;28;20465;-80
2023/01/23 12:28:05;;;;;;;0.70;0.70;;;1.30;99.90;;;;;;5094460;28;20447;-80
2023/01/23 12:30:50;;;;;;;1.53;0.70;;;1.50;99.90;;;;;;5094443;28;20432;-79
2023/01/23 12:33:29;;;;;;;0.30;0.30;;;1.60;99.90;;;;;;5094331;28;20432;-79
2023/01/23 12:36:10;;;;;;;0.60;0.60;;;1.70;99.90;;;;;;5093270;28;20469;-80
2023/01/23 12:38:49;;;;;;;1.53;1.13;;;1.80;99.90;;;;;;5094144;28;20428;-80
2023/01/23 12:41:26;;;;;;;0.30;0.30;;;1.90;99.90;;;;;;5094152;28;20429;-79
2023/01/23 12:43:59;;;;;;;0.50;0.50;;;1.90;99.90;;;;;;5094199;28;20428;-79
2023/01/23 12:46:34;;;;;;;1.37;0.87;;;1.90;99.90;;;;;;5093768;28;20979;-79
2023/01/23 12:49:09;;;;;;;1.23;1.23;;;2.00;99.90;;;;;;5094105;28;20449;-79
2023/01/23 12:51:39;;;;;;;0.70;0.53;;;2.10;99.90;;;;;;5094035;28;20435;-80
2023/01/23 12:54:17;;;;;;;0.53;0.53;;;2.30;99.90;;;;;;5093969;28;20457;-80
2023/01/23 12:56:46;;;;;;;0.50;0.50;;;2.30;99.90;;;;;;5093447;28;20983;-80
2023/01/23 12:59:22;;;;;;;1.23;0.87;;;2.30;99.90;;;;;;5093859;28;20444;-80
2023/01/23 13:02:00;;;;;;;0.30;0.30;;;2.40;99.90;;;;;;5093909;28;20443;-80
2023/01/23 13:04:45;;;;;;;0.37;0.37;;;2.50;99.90;;;;;;5093804;28;20429;-79
2023/01/23 13:07:27;;;;;;;0.73;0.73;;;2.60;99.90;;;;;;5094021;28;20915;-79
2023/01/23 13:10:20;;;;;;;0.30;0.30;;;2.70;99.90;;;;;;5093422;28;20439;-79
2023/01/23 13:12:48;;;;;;;0.30;0.30;;;2.70;99.90;;;;;;5093701;28;20436;-79
2023/01/23 13:15:31;;;;;;;3.70;1.53;;;2.60;99.90;;;;;;5093215;28;20484;-79